sensor_id;sensor_type;location;lat;lon;timestamp;temperature;humidity
65478;SHT31;53678;39.642;22.430;2023-02-28T00:01:07;13.29;75.42
65478;SHT31;53678;39.642;22.430;2023-02-28T00:03:33;13.16;75.62
65478;SHT31;53678;39.642;22.430;2023-02-28T00:06:04;13.10;76.03
65478;SHT31;53678;39.642;22.430;2023-02-28T00:08:30;13.07;76.03
65478;SHT31;53678;39.642;22.430;2023-02-28T00:10:55;13.01;76.22
65478;SHT31;53678;39.642;22.430;2023-02-28T00:13:21;13.01;76.23
65478;SHT31;53678;39.642;22.430;2023-02-28T00:15:47;13.11;76.13
65478;SHT31;53678;39.642;22.430;2023-02-28T00:18:12;13.01;75.95
65478;SHT31;53678;39.642;22.430;2023-02-28T00:20:39;13.12;75.85
65478;SHT31;53678;39.642;22.430;2023-02-28T00:23:04;13.05;75.81
65478;SHT31;53678;39.642;22.430;2023-02-28T00:25:30;13.14;75.60
65478;SHT31;53678;39.642;22.430;2023-02-28T00:27:56;13.18;75.81
65478;SHT31;53678;39.642;22.430;2023-02-28T00:30:22;13.22;75.71
65478;SHT31;53678;39.642;22.430;2023-02-28T00:32:49;13.29;75.62
65478;SHT31;53678;39.642;22.430;2023-02-28T00:35:15;13.43;75.59
65478;SHT31;53678;39.642;22.430;2023-02-28T00:37:41;13.38;75.60
65478;SHT31;53678;39.642;22.430;2023-02-28T00:40:08;13.34;75.95
65478;SHT31;53678;39.642;22.430;2023-02-28T00:42:34;13.25;76.04
65478;SHT31;53678;39.642;22.430;2023-02-28T00:45:00;13.22;76.61
65478;SHT31;53678;39.642;22.430;2023-02-28T00:47:26;13.35;75.97
65478;SHT31;53678;39.642;22.430;2023-02-28T00:49:52;13.31;76.45
65478;SHT31;53678;39.642;22.430;2023-02-28T00:52:18;13.26;76.64
65478;SHT31;53678;39.642;22.430;2023-02-28T00:54:43;13.29;76.56
65478;SHT31;53678;39.642;22.430;2023-02-28T00:57:09;13.36;76.58
65478;SHT31;53678;39.642;22.430;2023-02-28T00:59:35;13.43;76.35
65478;SHT31;53678;39.642;22.430;2023-02-28T01:02:01;13.51;76.05
65478;SHT31;53678;39.642;22.430;2023-02-28T01:04:26;13.39;76.33
65478;SHT31;53678;39.642;22.430;2023-02-28T01:06:52;13.35;76.33
65478;SHT31;53678;39.642;22.430;2023-02-28T01:09:18;13.32;76.50
65478;SHT31;53678;39.642;22.430;2023-02-28T01:11:43;13.18;76.69
65478;SHT31;53678;39.642;22.430;2023-02-28T01:14:14;13.12;77.04
65478;SHT31;53678;39.642;22.430;2023-02-28T01:16:40;12.87;77.84
65478;SHT31;53678;39.642;22.430;2023-02-28T01:19:06;12.64;78.68
65478;SHT31;53678;39.642;22.430;2023-02-28T01:21:32;12.45;78.95
65478;SHT31;53678;39.642;22.430;2023-02-28T01:23:58;11.92;80.53
65478;SHT31;53678;39.642;22.430;2023-02-28T01:26:24;11.64;81.32
65478;SHT31;53678;39.642;22.430;2023-02-28T01:28:51;11.10;82.36
65478;SHT31;53678;39.642;22.430;2023-02-28T01:31:18;10.91;83.64
65478;SHT31;53678;39.642;22.430;2023-02-28T01:33:44;11.00;83.45
65478;SHT31;53678;39.642;22.430;2023-02-28T01:36:16;10.88;83.50
65478;SHT31;53678;39.642;22.430;2023-02-28T01:38:43;10.95;83.37
65478;SHT31;53678;39.642;22.430;2023-02-28T01:41:15;10.91;83.46
65478;SHT31;53678;39.642;22.430;2023-02-28T01:46:12;10.50;83.81
65478;SHT31;53678;39.642;22.430;2023-02-28T01:48:42;10.38;84.28
65478;SHT31;53678;39.642;22.430;2023-02-28T01:51:15;10.37;84.14
65478;SHT31;53678;39.642;22.430;2023-02-28T01:53:48;10.33;84.24
65478;SHT31;53678;39.642;22.430;2023-02-28T01:56:18;10.44;84.19
65478;SHT31;53678;39.642;22.430;2023-02-28T01:58:49;10.41;83.91
65478;SHT31;53678;39.642;22.430;2023-02-28T02:01:16;10.37;84.44
65478;SHT31;53678;39.642;22.430;2023-02-28T02:03:53;10.69;83.38
65478;SHT31;53678;39.642;22.430;2023-02-28T02:06:43;10.89;82.82
65478;SHT31;53678;39.642;22.430;2023-02-28T02:09:11;10.92;82.15
65478;SHT31;53678;39.642;22.430;2023-02-28T02:11:39;11.05;82.17
65478;SHT31;53678;39.642;22.430;2023-02-28T02:14:17;11.20;82.01
65478;SHT31;53678;39.642;22.430;2023-02-28T02:25:20;11.53;81.08
65478;SHT31;53678;39.642;22.430;2023-02-28T02:36:35;10.86;82.43
65478;SHT31;53678;39.642;22.430;2023-02-28T02:39:09;11.08;81.98
65478;SHT31;53678;39.642;22.430;2023-02-28T02:41:50;11.24;80.80
65478;SHT31;53678;39.642;22.430;2023-02-28T02:44:37;11.10;82.16
65478;SHT31;53678;39.642;22.430;2023-02-28T02:47:16;11.26;80.80
65478;SHT31;53678;39.642;22.430;2023-02-28T02:49:50;11.24;80.46
65478;SHT31;53678;39.642;22.430;2023-02-28T02:52:18;11.24;80.69
65478;SHT31;53678;39.642;22.430;2023-02-28T02:54:48;11.39;80.54
65478;SHT31;53678;39.642;22.430;2023-02-28T02:57:27;11.31;80.79
65478;SHT31;53678;39.642;22.430;2023-02-28T02:59:56;11.31;81.07
65478;SHT31;53678;39.642;22.430;2023-02-28T03:02:23;11.34;80.71
65478;SHT31;53678;39.642;22.430;2023-02-28T03:04:52;11.34;80.40
65478;SHT31;53678;39.642;22.430;2023-02-28T03:07:20;11.41;80.62
65478;SHT31;53678;39.642;22.430;2023-02-28T03:09:51;11.37;79.76
65478;SHT31;53678;39.642;22.430;2023-02-28T03:12:18;11.23;80.11
65478;SHT31;53678;39.642;22.430;2023-02-28T03:15:17;11.06;80.80
65478;SHT31;53678;39.642;22.430;2023-02-28T03:20:40;10.69;82.13
65478;SHT31;53678;39.642;22.430;2023-02-28T03:23:23;10.78;81.94
65478;SHT31;53678;39.642;22.430;2023-02-28T03:28:41;10.81;82.63
65478;SHT31;53678;39.642;22.430;2023-02-28T03:34:02;10.82;83.43
65478;SHT31;53678;39.642;22.430;2023-02-28T03:36:31;10.96;82.40
65478;SHT31;53678;39.642;22.430;2023-02-28T03:39:07;11.18;82.20
65478;SHT31;53678;39.642;22.430;2023-02-28T03:41:44;11.23;81.67
65478;SHT31;53678;39.642;22.430;2023-02-28T03:44:26;11.37;81.15
65478;SHT31;53678;39.642;22.430;2023-02-28T03:46:58;11.46;80.56
65478;SHT31;53678;39.642;22.430;2023-02-28T03:49:33;11.53;80.39
65478;SHT31;53678;39.642;22.430;2023-02-28T03:52:02;11.63;80.14
65478;SHT31;53678;39.642;22.430;2023-02-28T03:54:36;11.64;79.96
65478;SHT31;53678;39.642;22.430;2023-02-28T03:57:12;11.48;80.20
65478;SHT31;53678;39.642;22.430;2023-02-28T03:59:45;11.34;80.38
65478;SHT31;53678;39.642;22.430;2023-02-28T04:02:13;11.05;81.53
65478;SHT31;53678;39.642;22.430;2023-02-28T04:04:38;11.02;81.89
65478;SHT31;53678;39.642;22.430;2023-02-28T04:07:11;11.09;81.95
65478;SHT31;53678;39.642;22.430;2023-02-28T04:09:37;11.22;81.26
65478;SHT31;53678;39.642;22.430;2023-02-28T04:12:03;11.33;80.85
65478;SHT31;53678;39.642;22.430;2023-02-28T04:14:29;11.39;81.00
65478;SHT31;53678;39.642;22.430;2023-02-28T04:16:55;11.41;80.54
65478;SHT31;53678;39.642;22.430;2023-02-28T04:19:20;11.36;80.78
65478;SHT31;53678;39.642;22.430;2023-02-28T04:21:51;11.33;80.93
65478;SHT31;53678;39.642;22.430;2023-02-28T04:24:19;11.12;81.77
65478;SHT31;53678;39.642;22.430;2023-02-28T04:26:48;11.03;81.77
65478;SHT31;53678;39.642;22.430;2023-02-28T04:29:20;11.20;81.63
65478;SHT31;53678;39.642;22.430;2023-02-28T04:31:46;11.24;81.62
65478;SHT31;53678;39.642;22.430;2023-02-28T04:34:12;11.34;81.05
65478;SHT31;53678;39.642;22.430;2023-02-28T04:36:37;11.40;81.07
65478;SHT31;53678;39.642;22.430;2023-02-28T04:39:03;11.43;81.06
65478;SHT31;53678;39.642;22.430;2023-02-28T04:41:29;11.48;80.83
65478;SHT31;53678;39.642;22.430;2023-02-28T04:43:55;11.64;80.83
65478;SHT31;53678;39.642;22.430;2023-02-28T04:46:22;11.70;80.44
65478;SHT31;53678;39.642;22.430;2023-02-28T04:48:48;11.74;80.13
65478;SHT31;53678;39.642;22.430;2023-02-28T04:51:16;11.78;79.84
65478;SHT31;53678;39.642;22.430;2023-02-28T04:53:43;11.81;79.52
65478;SHT31;53678;39.642;22.430;2023-02-28T04:56:12;11.91;79.40
65478;SHT31;53678;39.642;22.430;2023-02-28T04:58:38;11.97;79.38
65478;SHT31;53678;39.642;22.430;2023-02-28T05:01:34;12.06;78.70
65478;SHT31;53678;39.642;22.430;2023-02-28T05:04:01;12.05;78.55
65478;SHT31;53678;39.642;22.430;2023-02-28T05:06:29;12.05;78.29
65478;SHT31;53678;39.642;22.430;2023-02-28T05:08:55;12.01;78.73
65478;SHT31;53678;39.642;22.430;2023-02-28T05:11:23;12.09;78.58
65478;SHT31;53678;39.642;22.430;2023-02-28T05:13:50;12.12;78.57
65478;SHT31;53678;39.642;22.430;2023-02-28T05:16:16;12.56;81.04
65478;SHT31;53678;39.642;22.430;2023-02-28T05:18:42;12.49;78.23
65478;SHT31;53678;39.642;22.430;2023-02-28T05:21:30;12.60;77.27
65478;SHT31;53678;39.642;22.430;2023-02-28T05:24:09;12.64;76.97
65478;SHT31;53678;39.642;22.430;2023-02-28T05:26:38;12.68;77.03
65478;SHT31;53678;39.642;22.430;2023-02-28T05:29:03;12.80;76.91
65478;SHT31;53678;39.642;22.430;2023-02-28T05:31:30;12.90;76.67
65478;SHT31;53678;39.642;22.430;2023-02-28T05:33:56;12.84;76.75
65478;SHT31;53678;39.642;22.430;2023-02-28T05:36:23;12.70;77.85
65478;SHT31;53678;39.642;22.430;2023-02-28T05:38:50;12.68;77.58
65478;SHT31;53678;39.642;22.430;2023-02-28T05:41:16;12.59;78.35
65478;SHT31;53678;39.642;22.430;2023-02-28T05:43:42;12.50;78.84
65478;SHT31;53678;39.642;22.430;2023-02-28T05:46:10;12.36;79.34
65478;SHT31;53678;39.642;22.430;2023-02-28T05:48:39;12.25;79.93
65478;SHT31;53678;39.642;22.430;2023-02-28T05:51:06;12.11;80.76
65478;SHT31;53678;39.642;22.430;2023-02-28T05:53:33;12.01;80.83
65478;SHT31;53678;39.642;22.430;2023-02-28T05:55:59;12.12;80.74
65478;SHT31;53678;39.642;22.430;2023-02-28T05:58:25;12.25;80.45
65478;SHT31;53678;39.642;22.430;2023-02-28T06:00:54;12.33;80.10
65478;SHT31;53678;39.642;22.430;2023-02-28T06:03:20;12.46;79.80
65478;SHT31;53678;39.642;22.430;2023-02-28T06:05:46;12.52;79.65
65478;SHT31;53678;39.642;22.430;2023-02-28T06:08:11;12.72;79.32
65478;SHT31;53678;39.642;22.430;2023-02-28T06:10:37;12.68;78.86
65478;SHT31;53678;39.642;22.430;2023-02-28T06:13:03;12.66;79.30
65478;SHT31;53678;39.642;22.430;2023-02-28T06:15:30;12.80;78.76
65478;SHT31;53678;39.642;22.430;2023-02-28T06:17:56;12.93;78.45
65478;SHT31;53678;39.642;22.430;2023-02-28T06:20:23;12.77;77.88
65478;SHT31;53678;39.642;22.430;2023-02-28T06:22:50;12.70;78.43
65478;SHT31;53678;39.642;22.430;2023-02-28T06:25:17;12.64;78.23
65478;SHT31;53678;39.642;22.430;2023-02-28T06:27:43;12.63;77.93
65478;SHT31;53678;39.642;22.430;2023-02-28T06:30:10;12.66;77.97
65478;SHT31;53678;39.642;22.430;2023-02-28T06:32:35;12.61;78.44
65478;SHT31;53678;39.642;22.430;2023-02-28T06:35:02;12.56;78.73
65478;SHT31;53678;39.642;22.430;2023-02-28T06:37:30;12.53;79.32
65478;SHT31;53678;39.642;22.430;2023-02-28T06:39:55;12.70;78.61
65478;SHT31;53678;39.642;22.430;2023-02-28T06:42:24;12.79;78.40
65478;SHT31;53678;39.642;22.430;2023-02-28T06:44:57;12.66;78.85
65478;SHT31;53678;39.642;22.430;2023-02-28T06:47:23;12.45;79.09
65478;SHT31;53678;39.642;22.430;2023-02-28T06:49:50;12.52;79.43
65478;SHT31;53678;39.642;22.430;2023-02-28T06:52:16;12.32;80.74
65478;SHT31;53678;39.642;22.430;2023-02-28T06:54:42;12.32;81.16
65478;SHT31;53678;39.642;22.430;2023-02-28T06:57:07;12.33;81.86
65478;SHT31;53678;39.642;22.430;2023-02-28T06:59:33;12.37;82.65
65478;SHT31;53678;39.642;22.430;2023-02-28T07:02:00;12.37;82.75
65478;SHT31;53678;39.642;22.430;2023-02-28T07:04:27;12.61;82.82
65478;SHT31;53678;39.642;22.430;2023-02-28T07:06:54;12.79;82.77
65478;SHT31;53678;39.642;22.430;2023-02-28T07:09:22;12.74;82.68
65478;SHT31;53678;39.642;22.430;2023-02-28T07:11:48;12.67;83.46
65478;SHT31;53678;39.642;22.430;2023-02-28T07:14:14;12.64;83.11
65478;SHT31;53678;39.642;22.430;2023-02-28T07:16:40;12.61;83.61
65478;SHT31;53678;39.642;22.430;2023-02-28T07:19:05;12.68;83.54
65478;SHT31;53678;39.642;22.430;2023-02-28T07:21:31;12.77;83.81
65478;SHT31;53678;39.642;22.430;2023-02-28T07:23:58;12.67;84.31
65478;SHT31;53678;39.642;22.430;2023-02-28T07:26:23;12.60;84.67
65478;SHT31;53678;39.642;22.430;2023-02-28T07:28:49;12.70;85.85
65478;SHT31;53678;39.642;22.430;2023-02-28T07:31:15;12.80;84.61
65478;SHT31;53678;39.642;22.430;2023-02-28T07:33:42;12.79;85.98
65478;SHT31;53678;39.642;22.430;2023-02-28T07:36:09;12.90;85.60
65478;SHT31;53678;39.642;22.430;2023-02-28T07:38:42;12.90;85.67
65478;SHT31;53678;39.642;22.430;2023-02-28T07:41:08;12.70;87.18
65478;SHT31;53678;39.642;22.430;2023-02-28T07:43:35;12.60;86.96
65478;SHT31;53678;39.642;22.430;2023-02-28T07:46:08;12.70;86.28
65478;SHT31;53678;39.642;22.430;2023-02-28T07:48:35;12.80;85.45
65478;SHT31;53678;39.642;22.430;2023-02-28T07:51:01;12.85;86.27
65478;SHT31;53678;39.642;22.430;2023-02-28T07:53:28;12.81;86.56
65478;SHT31;53678;39.642;22.430;2023-02-28T07:55:56;12.77;86.90
65478;SHT31;53678;39.642;22.430;2023-02-28T07:58:22;12.50;88.38
65478;SHT31;53678;39.642;22.430;2023-02-28T08:00:49;12.36;90.27
65478;SHT31;53678;39.642;22.430;2023-02-28T08:03:16;12.35;90.66
65478;SHT31;53678;39.642;22.430;2023-02-28T08:05:42;12.50;90.88
65478;SHT31;53678;39.642;22.430;2023-02-28T08:08:07;12.67;90.54
65478;SHT31;53678;39.642;22.430;2023-02-28T08:10:34;12.45;90.35
65478;SHT31;53678;39.642;22.430;2023-02-28T08:12:59;12.80;89.59
65478;SHT31;53678;39.642;22.430;2023-02-28T08:15:25;13.01;88.70
65478;SHT31;53678;39.642;22.430;2023-02-28T08:17:51;13.10;88.43
65478;SHT31;53678;39.642;22.430;2023-02-28T08:20:17;12.84;89.23
65478;SHT31;53678;39.642;22.430;2023-02-28T08:22:43;12.90;90.02
65478;SHT31;53678;39.642;22.430;2023-02-28T08:25:09;12.97;89.39
65478;SHT31;53678;39.642;22.430;2023-02-28T08:27:35;12.79;89.72
65478;SHT31;53678;39.642;22.430;2023-02-28T08:30:02;12.90;90.20
65478;SHT31;53678;39.642;22.430;2023-02-28T08:32:28;12.74;89.31
65478;SHT31;53678;39.642;22.430;2023-02-28T08:34:56;12.64;88.81
65478;SHT31;53678;39.642;22.430;2023-02-28T08:37:21;12.59;89.45
65478;SHT31;53678;39.642;22.430;2023-02-28T08:39:47;12.57;90.14
65478;SHT31;53678;39.642;22.430;2023-02-28T08:42:13;12.55;89.51
65478;SHT31;53678;39.642;22.430;2023-02-28T08:44:39;12.52;89.65
65478;SHT31;53678;39.642;22.430;2023-02-28T08:47:06;12.59;89.09
65478;SHT31;53678;39.642;22.430;2023-02-28T08:49:32;12.60;88.90
65478;SHT31;53678;39.642;22.430;2023-02-28T08:51:57;12.63;89.11
65478;SHT31;53678;39.642;22.430;2023-02-28T08:54:24;12.64;88.25
65478;SHT31;53678;39.642;22.430;2023-02-28T08:56:50;12.70;88.03
65478;SHT31;53678;39.642;22.430;2023-02-28T08:59:16;12.84;88.12
65478;SHT31;53678;39.642;22.430;2023-02-28T09:01:41;12.80;87.53
65478;SHT31;53678;39.642;22.430;2023-02-28T09:04:09;12.85;86.76
65478;SHT31;53678;39.642;22.430;2023-02-28T09:06:37;12.84;86.63
65478;SHT31;53678;39.642;22.430;2023-02-28T09:09:03;12.95;87.70
65478;SHT31;53678;39.642;22.430;2023-02-28T09:11:31;12.97;87.55
65478;SHT31;53678;39.642;22.430;2023-02-28T09:13:58;12.95;86.92
65478;SHT31;53678;39.642;22.430;2023-02-28T09:16:26;13.03;86.42
65478;SHT31;53678;39.642;22.430;2023-02-28T09:18:51;13.10;85.36
65478;SHT31;53678;39.642;22.430;2023-02-28T09:21:18;13.15;85.06
65478;SHT31;53678;39.642;22.430;2023-02-28T09:23:46;13.32;85.13
65478;SHT31;53678;39.642;22.430;2023-02-28T09:26:18;13.43;84.36
65478;SHT31;53678;39.642;22.430;2023-02-28T09:28:45;13.49;84.42
65478;SHT31;53678;39.642;22.430;2023-02-28T09:31:16;13.53;86.44
65478;SHT31;53678;39.642;22.430;2023-02-28T09:33:48;13.59;86.69
65478;SHT31;53678;39.642;22.430;2023-02-28T09:36:14;13.66;86.18
65478;SHT31;53678;39.642;22.430;2023-02-28T09:38:40;13.77;86.10
65478;SHT31;53678;39.642;22.430;2023-02-28T09:41:15;14.04;84.84
65478;SHT31;53678;39.642;22.430;2023-02-28T09:43:45;13.91;84.88
65478;SHT31;53678;39.642;22.430;2023-02-28T09:46:29;13.90;85.23
65478;SHT31;53678;39.642;22.430;2023-02-28T09:48:57;13.99;85.33
65478;SHT31;53678;39.642;22.430;2023-02-28T09:51:43;13.89;85.67
65478;SHT31;53678;39.642;22.430;2023-02-28T09:54:16;13.80;86.23
65478;SHT31;53678;39.642;22.430;2023-02-28T09:56:48;13.77;86.70
65478;SHT31;53678;39.642;22.430;2023-02-28T10:02:18;13.56;87.16
65478;SHT31;53678;39.642;22.430;2023-02-28T10:10:21;13.73;86.39
65478;SHT31;53678;39.642;22.430;2023-02-28T10:12:52;13.90;85.38
65478;SHT31;53678;39.642;22.430;2023-02-28T10:15:21;14.00;85.11
65478;SHT31;53678;39.642;22.430;2023-02-28T10:17:56;13.94;85.68
65478;SHT31;53678;39.642;22.430;2023-02-28T10:20:24;13.91;85.32
65478;SHT31;53678;39.642;22.430;2023-02-28T10:25:38;14.04;86.07
65478;SHT31;53678;39.642;22.430;2023-02-28T10:28:12;14.31;85.53
65478;SHT31;53678;39.642;22.430;2023-02-28T10:30:43;14.38;85.38
65478;SHT31;53678;39.642;22.430;2023-02-28T10:33:32;14.42;85.28
65478;SHT31;53678;39.642;22.430;2023-02-28T10:36:03;14.46;85.83
65478;SHT31;53678;39.642;22.430;2023-02-28T10:38:39;14.61;85.47
65478;SHT31;53678;39.642;22.430;2023-02-28T10:41:14;14.52;85.61
65478;SHT31;53678;39.642;22.430;2023-02-28T10:43:42;14.58;85.35
65478;SHT31;53678;39.642;22.430;2023-02-28T10:48:39;14.24;86.90
65478;SHT31;53678;39.642;22.430;2023-02-28T10:51:13;14.31;86.92
65478;SHT31;53678;39.642;22.430;2023-02-28T10:56:17;14.59;85.49
65478;SHT31;53678;39.642;22.430;2023-02-28T10:59:22;14.76;85.27
65478;SHT31;53678;39.642;22.430;2023-02-28T11:09:45;14.96;84.52
65478;SHT31;53678;39.642;22.430;2023-02-28T11:12:28;15.24;83.61
65478;SHT31;53678;39.642;22.430;2023-02-28T11:14:57;15.22;84.54
65478;SHT31;53678;39.642;22.430;2023-02-28T11:17:27;15.26;83.63
65478;SHT31;53678;39.642;22.430;2023-02-28T11:20:00;15.41;83.09
65478;SHT31;53678;39.642;22.430;2023-02-28T11:22:31;15.64;82.38
65478;SHT31;53678;39.642;22.430;2023-02-28T11:25:02;15.58;82.84
65478;SHT31;53678;39.642;22.430;2023-02-28T11:29:58;15.41;82.76
65478;SHT31;53678;39.642;22.430;2023-02-28T11:32:28;15.54;82.51
65478;SHT31;53678;39.642;22.430;2023-02-28T11:37:37;15.51;82.36
65478;SHT31;53678;39.642;22.430;2023-02-28T11:40:12;15.59;82.12
65478;SHT31;53678;39.642;22.430;2023-02-28T11:43:01;15.57;81.93
65478;SHT31;53678;39.642;22.430;2023-02-28T11:48:21;15.54;81.28
65478;SHT31;53678;39.642;22.430;2023-02-28T12:07:16;15.84;82.22
65478;SHT31;53678;39.642;22.430;2023-02-28T12:10:03;15.82;82.20
65478;SHT31;53678;39.642;22.430;2023-02-28T12:18:22;15.55;82.73
65478;SHT31;53678;39.642;22.430;2023-02-28T12:28:57;15.43;83.16
65478;SHT31;53678;39.642;22.430;2023-02-28T12:31:36;15.40;83.18
65478;SHT31;53678;39.642;22.430;2023-02-28T12:34:10;15.36;83.69
65478;SHT31;53678;39.642;22.430;2023-02-28T12:36:37;15.37;83.71
65478;SHT31;53678;39.642;22.430;2023-02-28T12:41:51;15.47;83.42
65478;SHT31;53678;39.642;22.430;2023-02-28T12:45:01;15.40;83.46
65478;SHT31;53678;39.642;22.430;2023-02-28T12:47:19;15.46;84.06
65478;SHT31;53678;39.642;22.430;2023-02-28T12:50:04;15.74;83.82
65478;SHT31;53678;39.642;22.430;2023-02-28T12:52:36;15.51;84.45
65478;SHT31;53678;39.642;22.430;2023-02-28T12:55:19;15.50;85.08
65478;SHT31;53678;39.642;22.430;2023-02-28T12:58:31;15.53;85.02
65478;SHT31;53678;39.642;22.430;2023-02-28T13:00:38;15.40;85.46
65478;SHT31;53678;39.642;22.430;2023-02-28T13:06:20;15.07;86.45
65478;SHT31;53678;39.642;22.430;2023-02-28T13:09:09;14.98;88.69
65478;SHT31;53678;39.642;22.430;2023-02-28T13:11:44;15.07;88.44
65478;SHT31;53678;39.642;22.430;2023-02-28T13:14:24;15.03;87.67
65478;SHT31;53678;39.642;22.430;2023-02-28T13:16:58;14.80;86.41
65478;SHT31;53678;39.642;22.430;2023-02-28T13:19:27;14.71;84.21
65478;SHT31;53678;39.642;22.430;2023-02-28T13:21:57;14.78;84.84
65478;SHT31;53678;39.642;22.430;2023-02-28T13:24:41;14.69;83.80
65478;SHT31;53678;39.642;22.430;2023-02-28T13:29:38;14.78;84.24
65478;SHT31;53678;39.642;22.430;2023-02-28T13:42:33;14.83;86.40
65478;SHT31;53678;39.642;22.430;2023-02-28T13:47:51;14.78;84.75
65478;SHT31;53678;39.642;22.430;2023-02-28T13:50:23;14.92;85.38
65478;SHT31;53678;39.642;22.430;2023-02-28T13:58:27;15.40;81.17
65478;SHT31;53678;39.642;22.430;2023-02-28T14:06:26;15.34;82.61
65478;SHT31;53678;39.642;22.430;2023-02-28T14:09:00;15.44;83.45
65478;SHT31;53678;39.642;22.430;2023-02-28T14:13:55;15.47;84.10
65478;SHT31;53678;39.642;22.430;2023-02-28T14:16:23;15.44;86.18
65478;SHT31;53678;39.642;22.430;2023-02-28T14:18:58;15.54;85.14
65478;SHT31;53678;39.642;22.430;2023-02-28T14:21:31;15.57;85.20
65478;SHT31;53678;39.642;22.430;2023-02-28T14:41:39;15.29;85.16
65478;SHT31;53678;39.642;22.430;2023-02-28T14:44:20;15.14;85.35
65478;SHT31;53678;39.642;22.430;2023-02-28T14:46:50;15.14;85.42
65478;SHT31;53678;39.642;22.430;2023-02-28T14:49:32;15.11;85.56
65478;SHT31;53678;39.642;22.430;2023-02-28T14:52:06;15.04;85.69
65478;SHT31;53678;39.642;22.430;2023-02-28T14:54:36;15.06;85.68
65478;SHT31;53678;39.642;22.430;2023-02-28T14:57:03;15.00;85.13
65478;SHT31;53678;39.642;22.430;2023-02-28T14:59:31;14.99;84.69
65478;SHT31;53678;39.642;22.430;2023-02-28T15:02:22;14.95;84.90
65478;SHT31;53678;39.642;22.430;2023-02-28T15:05:02;14.92;85.81
65478;SHT31;53678;39.642;22.430;2023-02-28T15:07:36;14.78;86.81
65478;SHT31;53678;39.642;22.430;2023-02-28T15:10:22;14.78;87.35
65478;SHT31;53678;39.642;22.430;2023-02-28T15:13:15;14.65;87.88
65478;SHT31;53678;39.642;22.430;2023-02-28T15:15:49;14.69;88.66
65478;SHT31;53678;39.642;22.430;2023-02-28T15:21:10;14.49;89.48
65478;SHT31;53678;39.642;22.430;2023-02-28T15:23:41;14.54;89.61
65478;SHT31;53678;39.642;22.430;2023-02-28T15:26:13;14.58;90.21
65478;SHT31;53678;39.642;22.430;2023-02-28T15:28:39;14.48;90.99
65478;SHT31;53678;39.642;22.430;2023-02-28T15:31:23;14.37;90.96
65478;SHT31;53678;39.642;22.430;2023-02-28T15:33:56;14.30;91.48
65478;SHT31;53678;39.642;22.430;2023-02-28T15:36:26;14.31;91.80
65478;SHT31;53678;39.642;22.430;2023-02-28T15:38:53;14.34;92.05
65478;SHT31;53678;39.642;22.430;2023-02-28T15:41:37;14.38;91.63
65478;SHT31;53678;39.642;22.430;2023-02-28T15:46:59;14.27;92.61
65478;SHT31;53678;39.642;22.430;2023-02-28T15:50:06;14.18;92.18
65478;SHT31;53678;39.642;22.430;2023-02-28T15:52:42;14.20;92.00
65478;SHT31;53678;39.642;22.430;2023-02-28T15:55:20;14.21;91.92
65478;SHT31;53678;39.642;22.430;2023-02-28T15:57:52;14.20;91.57
65478;SHT31;53678;39.642;22.430;2023-02-28T16:00:21;14.25;91.75
65478;SHT31;53678;39.642;22.430;2023-02-28T16:02:47;14.31;91.95
65478;SHT31;53678;39.642;22.430;2023-02-28T16:05:27;14.31;91.88
65478;SHT31;53678;39.642;22.430;2023-02-28T16:07:55;14.27;92.07
65478;SHT31;53678;39.642;22.430;2023-02-28T16:10:22;14.16;91.93
65478;SHT31;53678;39.642;22.430;2023-02-28T16:12:53;14.13;91.82
65478;SHT31;53678;39.642;22.430;2023-02-28T16:15:23;14.14;92.06
65478;SHT31;53678;39.642;22.430;2023-02-28T16:17:50;14.24;91.66
65478;SHT31;53678;39.642;22.430;2023-02-28T16:20:20;14.18;91.77
65478;SHT31;53678;39.642;22.430;2023-02-28T16:22:46;14.18;91.69
65478;SHT31;53678;39.642;22.430;2023-02-28T16:25:23;14.13;91.58
65478;SHT31;53678;39.642;22.430;2023-02-28T16:27:52;14.17;91.50
65478;SHT31;53678;39.642;22.430;2023-02-28T16:30:22;14.14;91.47
65478;SHT31;53678;39.642;22.430;2023-02-28T16:32:49;14.07;91.20
65478;SHT31;53678;39.642;22.430;2023-02-28T16:35:16;14.10;91.57
65478;SHT31;53678;39.642;22.430;2023-02-28T16:37:45;14.11;91.37
65478;SHT31;53678;39.642;22.430;2023-02-28T16:40:19;14.14;91.63
65478;SHT31;53678;39.642;22.430;2023-02-28T16:42:48;14.09;91.62
65478;SHT31;53678;39.642;22.430;2023-02-28T16:45:20;14.07;91.72
65478;SHT31;53678;39.642;22.430;2023-02-28T16:47:47;14.17;91.33
65478;SHT31;53678;39.642;22.430;2023-02-28T16:50:24;14.28;90.31
65478;SHT31;53678;39.642;22.430;2023-02-28T16:52:51;14.20;91.16
65478;SHT31;53678;39.642;22.430;2023-02-28T16:55:21;14.20;91.33
65478;SHT31;53678;39.642;22.430;2023-02-28T16:57:51;14.28;91.24
65478;SHT31;53678;39.642;22.430;2023-02-28T17:00:19;14.09;90.98
65478;SHT31;53678;39.642;22.430;2023-02-28T17:02:45;14.03;91.70
65478;SHT31;53678;39.642;22.430;2023-02-28T17:05:11;14.09;91.84
65478;SHT31;53678;39.642;22.430;2023-02-28T17:07:38;14.11;91.61
65478;SHT31;53678;39.642;22.430;2023-02-28T17:10:25;14.20;91.34
65478;SHT31;53678;39.642;22.430;2023-02-28T17:12:51;14.18;90.82
65478;SHT31;53678;39.642;22.430;2023-02-28T17:15:18;14.25;90.49
65478;SHT31;53678;39.642;22.430;2023-02-28T17:17:47;14.22;89.66
65478;SHT31;53678;39.642;22.430;2023-02-28T17:20:20;14.35;89.16
65478;SHT31;53678;39.642;22.430;2023-02-28T17:22:50;14.48;89.29
65478;SHT31;53678;39.642;22.430;2023-02-28T17:25:16;14.41;89.08
65478;SHT31;53678;39.642;22.430;2023-02-28T17:27:43;14.38;89.61
65478;SHT31;53678;39.642;22.430;2023-02-28T17:32:41;14.38;88.02
65478;SHT31;53678;39.642;22.430;2023-02-28T17:35:07;14.30;88.65
65478;SHT31;53678;39.642;22.430;2023-02-28T17:37:33;14.28;88.66
65478;SHT31;53678;39.642;22.430;2023-02-28T17:39:59;14.24;88.97
65478;SHT31;53678;39.642;22.430;2023-02-28T17:42:24;14.37;88.39
65478;SHT31;53678;39.642;22.430;2023-02-28T17:44:50;14.46;88.19
65478;SHT31;53678;39.642;22.430;2023-02-28T17:47:16;14.45;87.58
65478;SHT31;53678;39.642;22.430;2023-02-28T17:49:41;14.41;88.28
65478;SHT31;53678;39.642;22.430;2023-02-28T17:52:08;14.37;87.77
65478;SHT31;53678;39.642;22.430;2023-02-28T17:54:33;14.17;88.66
65478;SHT31;53678;39.642;22.430;2023-02-28T17:56:59;14.03;89.23
65478;SHT31;53678;39.642;22.430;2023-02-28T17:59:25;13.99;91.12
65478;SHT31;53678;39.642;22.430;2023-02-28T18:02:02;13.91;91.41
65478;SHT31;53678;39.642;22.430;2023-02-28T18:04:29;13.84;91.85